Pettus, Arkansas
Current Conditions -  °F | °C
As of 3:58 AM on Thursday 29 Jan 2015 (Local Time) from KLRF Reporting Station
Clear Clear  
Wind Chill: 57°   Ceiling: Unl
Heat Index: 57°   Visibility: 10mi
Dew Point: 43°   Wind: 10mph
Humidity: 59%   Direction: 220°SW
Pressure: 30"   Gusts: NA
Location:  34.7557°N, 91.9476°W
Report Text: KLRF 290958Z AUTO 22009KT 10SM CLR 14/06 A3000 RMK AO2 SLP161 T01390061
Loading
Personal Weather Stations






























Interactive Weather Map New forecast layout! Learn more

10-Day Weather Forecast

Advertisements
Track Severe Weather on mobile